createdAt,value
2023-01-06T00:02:14.503Z,6.10
2023-01-06T00:04:46.895Z,3.50
2023-01-06T00:07:19.277Z,4.20
2023-01-06T00:09:51.748Z,6.70
2023-01-06T00:12:29.741Z,3.70
2023-01-06T00:15:02.048Z,4.10
2023-01-06T00:17:34.831Z,5.10
2023-01-06T00:20:08.340Z,5.10
2023-01-06T00:22:42.393Z,2.80
2023-01-06T00:25:14.688Z,3.30
2023-01-06T00:27:46.786Z,4.50
2023-01-06T00:30:18.987Z,5.40
2023-01-06T00:32:51.944Z,3.40
2023-01-06T00:38:05.574Z,2.80
2023-01-06T00:40:41.431Z,4.60
2023-01-06T00:43:14.034Z,1.70
2023-01-06T00:45:46.289Z,3.80
2023-01-06T00:48:19.173Z,3.70
2023-01-06T00:50:51.674Z,4.50
2023-01-06T00:53:37.515Z,5.60
2023-01-06T00:56:10.530Z,2.50
2023-01-06T00:58:42.868Z,2.70
2023-01-06T01:01:15.566Z,3.00
2023-01-06T01:03:47.943Z,3.10
2023-01-06T01:06:20.231Z,3.40
2023-01-06T01:09:08.444Z,2.80
2023-01-06T01:12:03.471Z,1.70
2023-01-06T01:14:36.577Z,2.70
2023-01-06T01:17:09.474Z,1.40
2023-01-06T01:19:47.955Z,2.30
2023-01-06T01:22:20.922Z,2.10
2023-01-06T01:24:53.310Z,4.50
2023-01-06T01:27:31.638Z,2.80
2023-01-06T01:30:03.852Z,3.20
2023-01-06T01:32:39.148Z,2.20
2023-01-06T01:35:12.703Z,2.80
2023-01-06T01:37:44.939Z,2.00
2023-01-06T01:40:17.734Z,1.90
2023-01-06T01:42:50.372Z,3.40
2023-01-06T01:45:26.742Z,2.40
2023-01-06T01:48:04.794Z,5.20
2023-01-06T01:50:46.571Z,2.10
2023-01-06T01:53:22.286Z,4.20
2023-01-06T01:55:58.416Z,2.70
2023-01-06T01:58:40.762Z,3.70
2023-01-06T02:01:14.839Z,2.30
2023-01-06T02:03:47.855Z,2.20
2023-01-06T02:06:23.595Z,2.10
2023-01-06T02:09:06.066Z,1.30
2023-01-06T02:11:39.512Z,1.80
2023-01-06T02:14:14.657Z,3.30
2023-01-06T02:17:01.642Z,2.80
2023-01-06T02:20:09.114Z,1.90
2023-01-06T02:23:16.893Z,4.90
2023-01-06T02:29:21.539Z,2.40
2023-01-06T02:32:03.493Z,3.10
2023-01-06T02:34:44.893Z,2.50
2023-01-06T02:37:30.206Z,2.30
2023-01-06T02:40:22.003Z,5.20
2023-01-06T02:43:10.369Z,2.80
2023-01-06T02:46:03.151Z,1.40
2023-01-06T02:48:46.378Z,3.10
2023-01-06T02:51:31.213Z,2.40
2023-01-06T02:54:15.522Z,3.30
2023-01-06T02:56:54.425Z,3.10
2023-01-06T02:59:36.803Z,3.90
2023-01-06T03:02:12.642Z,2.60
2023-01-06T03:04:49.934Z,3.30
2023-01-06T03:07:26.200Z,4.70
2023-01-06T03:10:01.159Z,2.60
2023-01-06T03:12:42.856Z,5.90
2023-01-06T03:15:16.260Z,4.30
2023-01-06T03:17:49.218Z,2.50
2023-01-06T03:20:22.234Z,2.60
2023-01-06T03:22:54.776Z,2.50
2023-01-06T03:25:36.166Z,3.60
2023-01-06T03:28:09.165Z,6.60
2023-01-06T03:30:49.373Z,2.90
2023-01-06T03:33:27.840Z,3.00
2023-01-06T03:36:14.946Z,3.70
2023-01-06T03:38:59.807Z,3.10
2023-01-06T03:42:01.893Z,3.50
2023-01-06T03:44:48.671Z,2.90
2023-01-06T03:47:30.998Z,3.30
2023-01-06T03:50:11.102Z,3.80
2023-01-06T03:52:51.765Z,3.10
2023-01-06T03:55:34.293Z,3.50
2023-01-06T04:00:40.398Z,4.00
2023-01-06T04:03:16.148Z,3.40
2023-01-06T04:05:49.437Z,6.60
2023-01-06T04:08:21.971Z,3.40
2023-01-06T04:10:54.559Z,3.80
2023-01-06T04:13:29.992Z,2.70
2023-01-06T04:18:34.236Z,3.70
2023-01-06T04:21:07.163Z,2.60
2023-01-06T04:23:39.742Z,3.00
2023-01-06T04:26:12.773Z,4.40
2023-01-06T04:28:51.086Z,3.30
2023-01-06T04:31:35.293Z,2.40
2023-01-06T04:34:08.029Z,3.90
2023-01-06T04:36:40.593Z,6.70
2023-01-06T04:39:13.376Z,3.90
2023-01-06T04:41:45.465Z,4.90
2023-01-06T04:44:21.100Z,3.50
2023-01-06T04:46:53.344Z,5.80
2023-01-06T04:49:28.380Z,29.70
2023-01-06T04:52:07.180Z,19.90
2023-01-06T04:54:39.714Z,23.40
2023-01-06T04:57:14.615Z,11.80
2023-01-06T04:59:50.176Z,3.90
2023-01-06T05:02:22.326Z,3.40
2023-01-06T05:04:54.698Z,5.40
2023-01-06T05:07:35.827Z,4.80
2023-01-06T05:10:10.916Z,11.50
2023-01-06T05:12:49.159Z,10.70
2023-01-06T05:15:21.909Z,14.40
2023-01-06T05:17:54.399Z,12.50
2023-01-06T05:20:26.551Z,14.90
2023-01-06T05:22:58.922Z,17.30
2023-01-06T05:25:31.224Z,11.90
2023-01-06T05:28:03.506Z,9.70
2023-01-06T05:30:35.720Z,12.20
2023-01-06T05:33:08.070Z,9.70
2023-01-06T05:35:40.381Z,11.30
2023-01-06T05:38:15.181Z,11.70
2023-01-06T05:40:51.831Z,10.30
2023-01-06T05:43:24.265Z,11.00
2023-01-06T05:46:03.666Z,8.70
2023-01-06T05:48:39.543Z,9.40
2023-01-06T05:51:13.659Z,11.20
2023-01-06T05:53:48.697Z,8.20
2023-01-06T05:56:22.734Z,14.10
2023-01-06T05:59:08.393Z,83.00
2023-01-06T06:01:40.924Z,31.70
2023-01-06T06:04:16.466Z,14.30
2023-01-06T06:06:51.858Z,14.10
2023-01-06T06:09:24.339Z,13.60
2023-01-06T06:12:09.016Z,11.00
2023-01-06T06:14:41.347Z,20.70
2023-01-06T06:17:16.710Z,25.90
2023-01-06T06:19:54.665Z,15.40
2023-01-06T06:22:32.966Z,11.70
2023-01-06T06:25:09.234Z,11.60
2023-01-06T06:30:13.464Z,9.90
2023-01-06T06:32:51.679Z,15.70
2023-01-06T06:35:24.030Z,76.90
2023-01-06T06:38:10.327Z,104.10
2023-01-06T06:40:49.085Z,20.50
2023-01-06T06:43:21.530Z,14.80
2023-01-06T06:45:53.863Z,10.90
2023-01-06T06:48:26.195Z,15.30
2023-01-06T06:51:06.955Z,17.30
2023-01-06T06:53:42.229Z,13.60
2023-01-06T06:56:16.448Z,13.80
2023-01-06T06:58:48.714Z,25.40
2023-01-06T07:01:22.344Z,8.50
2023-01-06T07:03:55.071Z,9.50
2023-01-06T07:06:28.988Z,27.30
2023-01-06T07:09:01.486Z,15.90
2023-01-06T07:11:33.851Z,15.60
2023-01-06T07:14:06.175Z,6.70
2023-01-06T07:16:38.965Z,3.80
2023-01-06T07:19:12.881Z,5.10
2023-01-06T07:21:48.220Z,6.30
2023-01-06T07:24:20.793Z,5.70
2023-01-06T07:26:58.810Z,6.50
2023-01-06T07:29:34.438Z,5.60
2023-01-06T07:32:09.380Z,7.00
2023-01-06T07:34:48.553Z,6.40
2023-01-06T07:37:21.092Z,4.20
2023-01-06T07:39:53.819Z,4.50
2023-01-06T07:42:26.352Z,4.10
2023-01-06T07:44:58.757Z,4.40
2023-01-06T07:47:31.643Z,5.30
2023-01-06T07:50:04.319Z,4.40
2023-01-06T07:52:36.691Z,4.00
2023-01-06T07:55:10.365Z,6.40
2023-01-06T07:57:42.869Z,5.60
2023-01-06T08:00:16.987Z,4.40
2023-01-06T08:02:49.288Z,7.50
2023-01-06T08:05:24.901Z,13.50
2023-01-06T08:08:00.656Z,11.80
2023-01-06T08:10:33.147Z,11.80
2023-01-06T08:13:05.579Z,16.00
2023-01-06T08:15:39.071Z,14.20
2023-01-06T08:18:11.871Z,13.20
2023-01-06T08:20:44.244Z,32.30
2023-01-06T08:23:16.542Z,35.20
2023-01-06T08:25:48.976Z,40.40
2023-01-06T08:28:24.340Z,22.50
2023-01-06T08:31:14.622Z,13.90
2023-01-06T08:33:51.829Z,12.10
2023-01-06T08:36:26.347Z,12.20
2023-01-06T08:38:59.335Z,13.60
2023-01-06T08:41:34.560Z,10.40
2023-01-06T08:44:07.150Z,8.80
2023-01-06T08:46:45.225Z,11.20
2023-01-06T08:49:21.017Z,8.40
2023-01-06T08:51:53.270Z,7.90
2023-01-06T08:54:25.535Z,7.50
2023-01-06T08:56:57.705Z,14.00
2023-01-06T08:59:30.389Z,15.00
2023-01-06T09:02:03.138Z,15.40
2023-01-06T09:04:36.124Z,21.10
2023-01-06T09:07:11.356Z,14.90
2023-01-06T09:09:43.622Z,11.00
2023-01-06T09:12:18.853Z,15.60
2023-01-06T09:14:51.098Z,9.60
2023-01-06T09:17:23.386Z,8.40
2023-01-06T09:19:55.725Z,9.10
2023-01-06T09:22:28.320Z,12.20
2023-01-06T09:25:03.403Z,11.70
2023-01-06T09:27:35.595Z,11.60
2023-01-06T09:30:12.160Z,12.30
2023-01-06T09:32:44.771Z,11.70
2023-01-06T09:35:20.042Z,15.20
2023-01-06T09:37:52.536Z,13.10
2023-01-06T09:40:30.432Z,16.30
2023-01-06T09:43:15.844Z,13.00
2023-01-06T09:45:51.626Z,17.40
2023-01-06T09:48:29.609Z,10.50
2023-01-06T09:51:09.197Z,9.50
2023-01-06T09:53:46.149Z,12.60
2023-01-06T09:56:21.154Z,9.90
2023-01-06T09:59:04.225Z,15.80
2023-01-06T10:01:41.608Z,12.60
2023-01-06T10:04:19.030Z,16.30
2023-01-06T10:07:04.016Z,16.20
2023-01-06T10:09:49.259Z,13.60
2023-01-06T10:12:37.813Z,12.70
2023-01-06T10:15:21.834Z,13.20
2023-01-06T10:18:05.093Z,15.30
2023-01-06T10:21:06.881Z,13.50
2023-01-06T10:24:05.852Z,12.10
2023-01-06T10:26:44.320Z,13.50
2023-01-06T10:29:20.418Z,18.40
2023-01-06T10:32:01.897Z,13.60
2023-01-06T10:34:37.283Z,13.60
2023-01-06T10:37:20.312Z,14.10
2023-01-06T10:40:00.572Z,11.60
2023-01-06T10:43:06.884Z,11.30
2023-01-06T10:45:44.698Z,10.70
2023-01-06T10:48:19.797Z,15.20
2023-01-06T10:50:57.098Z,10.40
2023-01-06T10:53:37.377Z,24.80
2023-01-06T10:56:11.183Z,17.90
2023-01-06T10:58:57.082Z,24.70
2023-01-06T11:01:34.922Z,27.20
2023-01-06T11:04:12.307Z,26.20
2023-01-06T11:06:47.538Z,16.30
2023-01-06T11:09:40.752Z,21.10
2023-01-06T11:12:17.982Z,29.60
2023-01-06T11:15:03.403Z,43.30
2023-01-06T11:17:37.563Z,13.50
2023-01-06T11:20:29.301Z,32.70
2023-01-06T11:23:23.476Z,22.60
2023-01-06T11:26:24.303Z,41.20
2023-01-06T11:28:58.630Z,14.90
2023-01-06T11:31:32.341Z,16.70
2023-01-06T11:34:06.755Z,14.10
2023-01-06T11:36:47.416Z,21.90
2023-01-06T11:39:27.605Z,23.80
2023-01-06T11:42:11.929Z,22.10
2023-01-06T11:44:44.923Z,19.80
2023-01-06T11:47:20.146Z,16.40
2023-01-06T11:49:55.737Z,19.60
2023-01-06T11:52:39.452Z,19.80
2023-01-06T11:55:25.915Z,35.00
2023-01-06T11:58:09.324Z,15.10
2023-01-06T12:00:53.122Z,15.50
2023-01-06T12:03:33.217Z,18.00
2023-01-06T12:06:22.954Z,24.00
2023-01-06T12:09:04.566Z,21.40
2023-01-06T12:11:45.622Z,15.20
2023-01-06T12:14:29.032Z,16.70
2023-01-06T12:17:14.001Z,16.10
2023-01-06T12:19:51.536Z,15.90
2023-01-06T12:22:35.936Z,18.50
2023-01-06T12:25:18.784Z,14.80
2023-01-06T12:27:56.487Z,10.10
2023-01-06T12:30:34.334Z,14.30
2023-01-06T12:33:17.920Z,14.60
2023-01-06T12:35:55.540Z,15.40
2023-01-06T12:38:43.838Z,25.90
2023-01-06T12:41:27.386Z,21.20
2023-01-06T12:44:21.282Z,36.50
2023-01-06T12:47:01.462Z,26.50
2023-01-06T12:49:40.590Z,28.60
2023-01-06T12:52:19.093Z,27.80
2023-01-06T12:54:57.418Z,12.90
2023-01-06T12:57:50.871Z,13.50
2023-01-06T13:00:48.898Z,30.30
2023-01-06T13:03:47.083Z,9.80
2023-01-06T13:06:36.256Z,14.90
2023-01-06T13:09:25.739Z,25.80
2023-01-06T13:12:14.587Z,14.80
2023-01-06T13:14:57.204Z,22.50
2023-01-06T13:17:44.888Z,15.90
2023-01-06T13:20:25.238Z,27.50
2023-01-06T13:23:21.161Z,21.10
2023-01-06T13:26:18.420Z,19.60
2023-01-06T13:29:07.359Z,18.60
2023-01-06T13:31:58.310Z,18.80
2023-01-06T13:35:12.248Z,35.80
2023-01-06T13:38:04.435Z,28.30
2023-01-06T13:40:44.699Z,22.90
2023-01-06T13:43:23.350Z,29.70
2023-01-06T13:46:08.618Z,32.50
2023-01-06T13:48:45.630Z,17.80
2023-01-06T13:51:24.739Z,25.20
2023-01-06T13:53:57.440Z,23.80
2023-01-06T13:56:35.820Z,21.20
2023-01-06T13:59:26.522Z,107.40
2023-01-06T14:02:00.049Z,23.10
2023-01-06T14:04:50.913Z,39.50
2023-01-06T14:07:36.564Z,39.90
2023-01-06T14:10:34.965Z,31.50
2023-01-06T14:13:19.270Z,18.90
2023-01-06T14:16:09.559Z,21.50
2023-01-06T14:18:46.210Z,26.30
2023-01-06T14:21:29.962Z,27.30
2023-01-06T14:24:06.893Z,27.30
2023-01-06T14:26:55.947Z,31.40
2023-01-06T14:30:07.997Z,41.50
2023-01-06T14:33:26.247Z,40.00
2023-01-06T14:36:06.518Z,34.60
2023-01-06T14:38:46.912Z,44.40
2023-01-06T14:41:27.065Z,44.70
2023-01-06T14:44:09.318Z,42.60
2023-01-06T14:46:53.475Z,40.40
2023-01-06T14:49:35.013Z,48.90
2023-01-06T14:52:16.591Z,50.90
2023-01-06T14:54:52.065Z,33.30
2023-01-06T14:57:35.016Z,41.00
2023-01-06T15:00:18.067Z,21.40
2023-01-06T15:02:52.601Z,20.30
2023-01-06T15:05:28.723Z,18.80
2023-01-06T15:08:07.195Z,19.10
2023-01-06T15:10:42.624Z,22.30
2023-01-06T15:13:25.827Z,20.00
2023-01-06T15:16:04.858Z,19.10
2023-01-06T15:18:42.904Z,17.10
2023-01-06T15:21:15.443Z,15.70
2023-01-06T15:23:51.086Z,15.30
2023-01-06T15:26:32.600Z,15.20
2023-01-06T15:29:15.762Z,17.40
2023-01-06T15:31:50.379Z,30.20
2023-01-06T15:34:38.453Z,26.90
2023-01-06T15:37:20.861Z,23.70
2023-01-06T15:39:55.102Z,22.90
2023-01-06T15:42:28.733Z,22.90
2023-01-06T15:45:22.810Z,28.60
2023-01-06T15:47:57.014Z,18.50
2023-01-06T15:50:35.111Z,8.70
2023-01-06T15:53:20.981Z,9.10
2023-01-06T15:55:56.996Z,13.80
2023-01-06T15:58:43.818Z,6.70
2023-01-06T16:01:18.807Z,8.70
2023-01-06T16:03:56.569Z,10.20
2023-01-06T16:06:39.001Z,10.90
2023-01-06T16:09:38.037Z,10.30
2023-01-06T16:12:21.166Z,8.40
2023-01-06T16:14:53.700Z,7.90
2023-01-06T16:17:33.281Z,12.10
2023-01-06T16:20:07.762Z,14.50
2023-01-06T16:22:51.301Z,12.50
2023-01-06T16:25:29.358Z,13.70
2023-01-06T16:28:26.980Z,15.30
2023-01-06T16:31:17.445Z,18.80
2023-01-06T16:33:54.875Z,17.50
2023-01-06T16:36:28.817Z,16.60
2023-01-06T16:39:02.699Z,12.70
2023-01-06T16:41:35.864Z,19.70
2023-01-06T16:44:09.815Z,18.50
2023-01-06T16:46:45.233Z,17.00
2023-01-06T16:49:17.853Z,12.90
2023-01-06T16:51:51.522Z,15.50
2023-01-06T16:54:26.040Z,15.10
2023-01-06T16:56:58.772Z,15.40
2023-01-06T16:59:39.597Z,13.60
2023-01-06T17:02:19.360Z,11.70
2023-01-06T17:04:53.878Z,10.80
2023-01-06T17:07:28.250Z,12.70
2023-01-06T17:10:00.728Z,15.10
2023-01-06T17:12:56.841Z,11.80
2023-01-06T17:15:29.471Z,13.50
2023-01-06T17:18:02.869Z,12.10
2023-01-06T17:20:36.043Z,11.90
2023-01-06T17:23:11.608Z,10.70
2023-01-06T17:25:47.569Z,6.60
2023-01-06T17:28:25.335Z,9.70
2023-01-06T17:31:05.902Z,6.80
2023-01-06T17:33:39.332Z,8.30
2023-01-06T17:36:19.834Z,11.70
2023-01-06T17:38:54.178Z,9.80
2023-01-06T17:41:28.290Z,13.00
2023-01-06T17:44:00.717Z,7.20
2023-01-06T17:46:38.208Z,9.50
2023-01-06T17:49:37.142Z,7.90
2023-01-06T17:52:20.595Z,8.20
2023-01-06T17:55:16.604Z,8.00
2023-01-06T17:57:49.678Z,13.60
2023-01-06T18:00:29.599Z,13.50
2023-01-06T18:03:12.709Z,16.80
2023-01-06T18:06:06.999Z,13.70
2023-01-06T18:08:40.197Z,11.70
2023-01-06T18:11:36.125Z,11.90
2023-01-06T18:14:23.149Z,17.60
2023-01-06T18:16:59.237Z,15.00
2023-01-06T18:19:36.754Z,14.60
2023-01-06T18:22:19.974Z,9.40
2023-01-06T18:24:57.358Z,8.20
2023-01-06T18:27:40.442Z,7.90
2023-01-06T18:30:21.807Z,8.40
2023-01-06T18:32:55.179Z,10.20
2023-01-06T18:35:29.344Z,11.10
2023-01-06T18:38:14.254Z,12.80
2023-01-06T18:40:47.287Z,13.60
2023-01-06T18:43:29.847Z,16.70
2023-01-06T18:46:12.509Z,13.60
2023-01-06T18:48:46.103Z,9.30
2023-01-06T18:51:25.071Z,18.40
2023-01-06T18:53:57.943Z,13.60
2023-01-06T18:56:30.399Z,10.80
2023-01-06T18:59:04.464Z,11.50
2023-01-06T19:01:46.224Z,9.60
2023-01-06T19:04:25.033Z,11.40
2023-01-06T19:07:02.138Z,11.10
2023-01-06T19:09:41.418Z,17.00
2023-01-06T19:12:27.403Z,18.40
2023-01-06T19:15:20.567Z,15.40
2023-01-06T19:17:54.628Z,21.90
2023-01-06T19:20:29.383Z,16.40
2023-01-06T19:23:23.180Z,7.20
2023-01-06T19:26:05.338Z,7.40
2023-01-06T19:28:38.631Z,7.20
2023-01-06T19:31:23.672Z,9.20
2023-01-06T19:34:00.685Z,6.90
2023-01-06T19:36:44.657Z,7.40
2023-01-06T19:39:34.820Z,8.50
2023-01-06T19:42:20.756Z,8.20
2023-01-06T19:44:58.253Z,8.10
2023-01-06T19:47:42.316Z,10.20
2023-01-06T19:50:20.679Z,7.30
2023-01-06T19:52:59.775Z,6.70
2023-01-06T19:55:38.837Z,7.80
2023-01-06T19:58:24.557Z,9.70
2023-01-06T20:00:58.458Z,9.70
2023-01-06T20:03:37.553Z,8.80
2023-01-06T20:06:13.571Z,7.00
2023-01-06T20:08:51.767Z,7.10
2023-01-06T20:11:25.046Z,6.60
2023-01-06T20:14:00.418Z,7.20
2023-01-06T20:16:39.192Z,6.00
2023-01-06T20:19:15.792Z,8.60
2023-01-06T20:21:51.708Z,9.50
2023-01-06T20:26:56.348Z,13.50
2023-01-06T20:29:28.866Z,6.90
2023-01-06T20:32:07.282Z,6.80
2023-01-06T20:34:43.070Z,8.00
2023-01-06T20:37:15.639Z,8.80
2023-01-06T20:39:53.894Z,9.50
2023-01-06T20:42:29.529Z,7.10
2023-01-06T20:45:02.257Z,8.20
2023-01-06T20:47:37.398Z,7.80
2023-01-06T20:50:13.936Z,7.10
2023-01-06T20:52:49.790Z,12.40
2023-01-06T20:55:22.227Z,13.40
2023-01-06T20:57:54.739Z,9.60
2023-01-06T21:00:27.393Z,12.20
2023-01-06T21:02:59.614Z,13.10
2023-01-06T21:05:32.468Z,11.10
2023-01-06T21:08:08.117Z,14.50
2023-01-06T21:10:43.744Z,10.80
2023-01-06T21:13:16.245Z,8.00
2023-01-06T21:15:48.679Z,7.10
2023-01-06T21:18:21.152Z,6.30
2023-01-06T21:20:53.714Z,6.40
2023-01-06T21:23:26.109Z,7.60
2023-01-06T21:25:58.839Z,7.80
2023-01-06T21:28:31.191Z,7.10
2023-01-06T21:31:03.688Z,6.50
2023-01-06T21:33:36.769Z,8.00
2023-01-06T21:36:13.376Z,7.50
2023-01-06T21:38:46.021Z,25.40
2023-01-06T21:41:35.698Z,19.80
2023-01-06T21:44:08.628Z,18.00
2023-01-06T21:46:47.925Z,9.10
2023-01-06T21:49:23.112Z,8.20
2023-01-06T21:51:59.850Z,7.60
2023-01-06T21:54:37.846Z,7.00
2023-01-06T21:57:10.459Z,6.70
2023-01-06T21:59:42.989Z,7.70
2023-01-06T22:02:17.140Z,6.50
2023-01-06T22:04:52.317Z,6.60
2023-01-06T22:07:35.372Z,9.20
2023-01-06T22:10:13.768Z,6.70
2023-01-06T22:12:52.220Z,6.30
2023-01-06T22:15:25.126Z,6.40
2023-01-06T22:18:01.376Z,6.10
2023-01-06T22:20:34.644Z,7.50
2023-01-06T22:23:15.041Z,5.90
2023-01-06T22:25:47.985Z,7.20
2023-01-06T22:28:20.795Z,6.50
2023-01-06T22:30:55.090Z,7.00
2023-01-06T22:33:27.563Z,7.50
2023-01-06T22:36:00.909Z,5.60
2023-01-06T22:38:34.395Z,6.70
2023-01-06T22:41:12.747Z,8.30
2023-01-06T22:43:45.276Z,7.20
2023-01-06T22:46:17.457Z,7.40
2023-01-06T22:48:49.828Z,6.10
2023-01-06T22:51:28.948Z,6.60
2023-01-06T22:54:01.488Z,8.50
2023-01-06T22:56:42.913Z,6.70
2023-01-06T22:59:15.178Z,7.20
2023-01-06T23:01:47.944Z,7.60
2023-01-06T23:04:20.432Z,6.30
2023-01-06T23:06:53.081Z,7.30
2023-01-06T23:09:31.295Z,8.10
2023-01-06T23:12:12.608Z,8.40
2023-01-06T23:14:47.983Z,7.40
2023-01-06T23:17:20.506Z,7.30
2023-01-06T23:19:53.014Z,8.90
2023-01-06T23:22:25.271Z,8.90
2023-01-06T23:24:57.536Z,8.50
2023-01-06T23:27:31.315Z,8.10
2023-01-06T23:30:04.450Z,7.60
2023-01-06T23:32:42.622Z,9.70
2023-01-06T23:35:15.119Z,8.20
2023-01-06T23:37:48.418Z,7.00
2023-01-06T23:40:21.005Z,7.70
2023-01-06T23:42:54.285Z,8.30
2023-01-06T23:45:26.569Z,7.60
2023-01-06T23:47:58.746Z,9.20
2023-01-06T23:50:31.312Z,6.10
2023-01-06T23:53:04.190Z,7.30
2023-01-06T23:55:36.587Z,8.30
2023-01-06T23:58:08.740Z,8.70
